createdAt,value
2023-03-05T00:00:56.120Z,3.08
2023-03-05T00:01:56.119Z,3.08
2023-03-05T00:02:56.162Z,3.07
2023-03-05T00:03:56.149Z,3.07
2023-03-05T00:04:56.066Z,3.08
2023-03-05T00:05:56.075Z,3.08
2023-03-05T00:06:56.057Z,3.07
2023-03-05T00:07:56.025Z,3.07
2023-03-05T00:08:56.023Z,3.08
2023-03-05T00:09:56.004Z,3.07
2023-03-05T00:10:55.982Z,3.07
2023-03-05T00:11:55.984Z,3.05
2023-03-05T00:12:55.962Z,3.07
2023-03-05T00:13:55.945Z,3.05
2023-03-05T00:14:55.934Z,3.04
2023-03-05T00:15:55.941Z,3.07
2023-03-05T00:16:55.925Z,3.04
2023-03-05T00:17:55.890Z,3.05
2023-03-05T00:18:55.879Z,3.04
2023-03-05T00:19:55.858Z,3.05
2023-03-05T00:20:55.865Z,3.04
2023-03-05T00:21:55.848Z,3.03
2023-03-05T00:22:55.833Z,3.03
2023-03-05T00:23:55.821Z,3.03
2023-03-05T00:24:55.809Z,3.01
2023-03-05T00:25:55.788Z,3.01
2023-03-05T00:26:55.796Z,3.01
2023-03-05T00:27:55.764Z,3.01
2023-03-05T00:28:55.806Z,3.01
2023-03-05T00:29:55.736Z,3.00
2023-03-05T00:30:55.758Z,3.00
2023-03-05T00:31:55.727Z,3.00
2023-03-05T00:32:55.717Z,2.98
2023-03-05T00:33:55.716Z,2.97
2023-03-05T00:34:55.684Z,2.98
2023-03-05T00:35:55.689Z,2.98
2023-03-05T00:36:55.692Z,2.98
2023-03-05T00:37:55.643Z,2.98
2023-03-05T00:38:55.634Z,2.97
2023-03-05T00:39:55.616Z,2.98
2023-03-05T00:40:55.608Z,2.95
2023-03-05T00:41:55.587Z,2.97
2023-03-05T00:42:55.595Z,2.97
2023-03-05T00:43:55.576Z,2.95
2023-03-05T00:44:55.554Z,2.95
2023-03-05T00:45:55.539Z,2.95
2023-03-05T00:46:55.526Z,2.95
2023-03-05T00:47:55.525Z,2.93
2023-03-05T00:48:55.508Z,2.95
2023-03-05T00:49:55.487Z,2.92
2023-03-05T00:50:55.474Z,2.93
2023-03-05T00:51:55.463Z,2.92
2023-03-05T00:52:55.455Z,2.92
2023-03-05T00:53:55.435Z,2.90
2023-03-05T00:54:55.428Z,2.90
2023-03-05T00:55:55.411Z,2.89
2023-03-05T00:56:55.393Z,2.87
2023-03-05T00:57:55.407Z,2.89
2023-03-05T00:58:55.367Z,2.87
2023-03-05T00:59:55.372Z,2.89
2023-03-05T01:00:55.344Z,2.89
2023-03-05T01:01:55.389Z,2.87
2023-03-05T01:02:55.328Z,2.87
2023-03-05T01:03:55.304Z,2.86
2023-03-05T01:04:55.290Z,2.86
2023-03-05T01:05:55.272Z,2.86
2023-03-05T01:06:55.250Z,2.85
2023-03-05T01:07:55.249Z,2.85
2023-03-05T01:08:55.217Z,2.85
2023-03-05T01:09:55.219Z,2.82
2023-03-05T01:10:55.200Z,2.82
2023-03-05T01:11:55.182Z,2.82
2023-03-05T01:12:55.173Z,2.80
2023-03-05T01:13:55.172Z,2.82
2023-03-05T01:14:55.130Z,2.82
2023-03-05T01:15:55.162Z,2.80
2023-03-05T01:16:55.117Z,2.80
2023-03-05T01:17:55.126Z,2.80
2023-03-05T01:18:55.099Z,2.79
2023-03-05T01:19:55.075Z,2.79
2023-03-05T01:20:55.052Z,2.77
2023-03-05T01:21:55.045Z,2.79
2023-03-05T01:22:55.049Z,2.77
2023-03-05T01:23:55.026Z,2.75
2023-03-05T01:24:55.009Z,2.77
2023-03-05T01:25:55.021Z,2.77
2023-03-05T01:26:55.005Z,2.75
2023-03-05T01:27:54.978Z,2.75
2023-03-05T01:28:54.952Z,2.74
2023-03-05T01:29:54.937Z,2.72
2023-03-05T01:30:54.922Z,2.74
2023-03-05T01:31:54.923Z,2.74
2023-03-05T01:32:54.907Z,2.74
2023-03-05T01:33:54.904Z,2.72
2023-03-05T01:34:54.865Z,2.72
2023-03-05T01:35:54.905Z,2.72
2023-03-05T01:36:54.848Z,2.71
2023-03-05T01:37:54.858Z,2.71
2023-03-05T01:38:54.816Z,2.71
2023-03-05T01:39:54.825Z,2.71
2023-03-05T01:40:54.790Z,2.69
2023-03-05T01:41:54.790Z,2.68
2023-03-05T01:42:54.778Z,2.69
2023-03-05T01:43:54.760Z,2.68
2023-03-05T01:44:54.737Z,2.68
2023-03-05T01:45:54.791Z,2.69
2023-03-05T01:46:54.713Z,2.68
2023-03-05T01:47:54.715Z,2.67
2023-03-05T01:48:54.684Z,2.67
2023-03-05T01:49:54.692Z,2.65
2023-03-05T01:50:54.661Z,2.65
2023-03-05T01:51:54.653Z,2.67
2023-03-05T01:52:54.654Z,2.65
2023-03-05T01:53:54.626Z,2.64
2023-03-05T01:54:54.604Z,2.62
2023-03-05T01:55:56.234Z,2.65
2023-03-05T01:56:54.600Z,2.62
2023-03-05T01:57:54.583Z,2.64
2023-03-05T01:58:54.562Z,2.62
2023-03-05T01:59:54.542Z,2.62
2023-03-05T02:00:54.603Z,2.61
2023-03-05T02:01:54.520Z,2.62
2023-03-05T02:02:54.513Z,2.62
2023-03-05T02:03:54.520Z,2.61
2023-03-05T02:04:54.481Z,2.61
2023-03-05T02:05:54.469Z,2.62
2023-03-05T02:06:54.449Z,2.62
2023-03-05T02:07:54.455Z,2.61
2023-03-05T02:08:54.421Z,2.61
2023-03-05T02:09:54.419Z,2.60
2023-03-05T02:10:54.396Z,2.61
2023-03-05T02:11:54.429Z,2.57
2023-03-05T02:12:54.387Z,2.60
2023-03-05T02:13:54.359Z,2.60
2023-03-05T02:14:54.348Z,2.57
2023-03-05T02:15:54.342Z,2.56
2023-03-05T02:16:54.360Z,2.57
2023-03-05T02:17:54.328Z,2.54
2023-03-05T02:18:54.298Z,2.56
2023-03-05T02:19:54.302Z,2.57
2023-03-05T02:20:54.271Z,2.56
2023-03-05T02:21:54.258Z,2.56
2023-03-05T02:22:54.261Z,2.57
2023-03-05T02:23:54.240Z,2.56
2023-03-05T02:24:54.229Z,2.56
2023-03-05T02:25:54.208Z,2.54
2023-03-05T02:26:54.230Z,2.54
2023-03-05T02:27:54.199Z,2.54
2023-03-05T02:28:54.166Z,2.56
2023-03-05T02:29:54.158Z,2.54
2023-03-05T02:30:54.135Z,2.54
2023-03-05T02:31:54.155Z,2.54
2023-03-05T02:32:54.129Z,2.54
2023-03-05T02:33:54.108Z,2.53
2023-03-05T02:34:54.089Z,2.51
2023-03-05T02:35:54.117Z,2.53
2023-03-05T02:36:54.066Z,2.53
2023-03-05T02:37:54.071Z,2.51
2023-03-05T02:38:54.034Z,2.51
2023-03-05T02:39:54.024Z,2.51
2023-03-05T02:40:54.004Z,2.50
2023-03-05T02:41:54.001Z,2.51
2023-03-05T02:42:54.014Z,2.51
2023-03-05T02:43:53.984Z,2.50
2023-03-05T02:44:53.954Z,2.50
2023-03-05T02:45:53.977Z,2.50
2023-03-05T02:46:53.932Z,2.50
2023-03-05T02:47:53.935Z,2.50
2023-03-05T02:48:53.903Z,2.49
2023-03-05T02:49:53.893Z,2.50
2023-03-05T02:50:53.884Z,2.49
2023-03-05T02:51:53.888Z,2.50
2023-03-05T02:52:53.862Z,2.49
2023-03-05T02:53:53.921Z,2.49
2023-03-05T02:54:53.824Z,2.49
2023-03-05T02:55:53.821Z,2.49
2023-03-05T02:56:53.808Z,2.50
2023-03-05T02:57:53.816Z,2.50
2023-03-05T02:58:53.785Z,2.50
2023-03-05T02:59:53.791Z,2.50
2023-03-05T03:00:53.830Z,2.50
2023-03-05T03:01:53.760Z,2.49
2023-03-05T03:02:53.776Z,2.49
2023-03-05T03:03:53.722Z,2.47
2023-03-05T03:04:53.705Z,2.47
2023-03-05T03:05:53.692Z,2.47
2023-03-05T03:06:53.686Z,2.46
2023-03-05T03:07:53.679Z,2.47
2023-03-05T03:08:53.652Z,2.49
2023-03-05T03:09:53.639Z,2.47
2023-03-05T03:10:53.624Z,2.46
2023-03-05T03:11:53.623Z,2.46
2023-03-05T03:12:53.622Z,2.47
2023-03-05T03:13:53.592Z,2.44
2023-03-05T03:14:53.578Z,2.44
2023-03-05T03:15:53.567Z,2.44
2023-03-05T03:16:53.572Z,2.43
2023-03-05T03:17:53.546Z,2.43
2023-03-05T03:18:53.532Z,2.43
2023-03-05T03:19:53.520Z,2.42
2023-03-05T03:20:53.501Z,2.42
2023-03-05T03:21:53.491Z,2.39
2023-03-05T03:22:53.776Z,2.42
2023-03-05T03:23:53.466Z,2.38
2023-03-05T03:24:53.459Z,2.39
2023-03-05T03:25:53.450Z,2.38
2023-03-05T03:26:53.427Z,2.38
2023-03-05T03:27:53.429Z,2.39
2023-03-05T03:28:53.400Z,2.38
2023-03-05T03:29:53.391Z,2.38
2023-03-05T03:30:53.421Z,2.38
2023-03-05T03:31:53.365Z,2.36
2023-03-05T03:32:53.363Z,2.36
2023-03-05T03:33:53.347Z,2.36
2023-03-05T03:34:53.385Z,2.38
2023-03-05T03:35:54.474Z,2.36
2023-03-05T03:36:53.298Z,2.33
2023-03-05T03:37:53.307Z,2.35
2023-03-05T03:38:53.268Z,2.36
2023-03-05T03:39:53.267Z,2.35
2023-03-05T03:40:53.259Z,2.35
2023-03-05T03:41:53.264Z,2.33
2023-03-05T03:42:53.280Z,2.33
2023-03-05T03:43:53.217Z,2.33
2023-03-05T03:44:53.215Z,2.33
2023-03-05T03:45:53.304Z,2.32
2023-03-05T03:46:53.187Z,2.33
2023-03-05T03:47:53.168Z,2.33
2023-03-05T03:48:53.166Z,2.32
2023-03-05T03:49:53.146Z,2.33
2023-03-05T03:50:53.116Z,2.33
2023-03-05T03:51:53.115Z,2.33
2023-03-05T03:52:53.102Z,2.31
2023-03-05T03:53:53.117Z,2.32
2023-03-05T03:54:53.104Z,2.31
2023-03-05T03:55:53.075Z,2.32
2023-03-05T03:56:53.050Z,2.32
2023-03-05T03:57:53.046Z,2.31
2023-03-05T03:58:53.034Z,2.31
2023-03-05T03:59:53.017Z,2.31
2023-03-05T04:00:53.008Z,2.31
2023-03-05T04:01:52.996Z,2.31
2023-03-05T04:02:53.052Z,2.29
2023-03-05T04:03:53.078Z,2.29
2023-03-05T04:04:52.951Z,2.31
2023-03-05T04:05:52.940Z,2.29
2023-03-05T04:06:52.926Z,2.29
2023-03-05T04:07:52.913Z,2.31
2023-03-05T04:08:52.914Z,2.29
2023-03-05T04:09:52.883Z,2.29
2023-03-05T04:10:52.880Z,2.31
2023-03-05T04:11:52.860Z,2.29
2023-03-05T04:12:52.865Z,2.28
2023-03-05T04:13:52.860Z,2.29
2023-03-05T04:14:52.825Z,2.29
2023-03-05T04:15:52.833Z,2.28
2023-03-05T04:16:52.791Z,2.29
2023-03-05T04:17:52.812Z,2.29
2023-03-05T04:18:52.782Z,2.29
2023-03-05T04:19:52.760Z,2.29
2023-03-05T04:20:52.744Z,2.31
2023-03-05T04:21:52.748Z,2.29
2023-03-05T04:22:52.710Z,2.29
2023-03-05T04:23:52.733Z,2.29
2023-03-05T04:24:52.692Z,2.29
2023-03-05T04:25:52.680Z,2.29
2023-03-05T04:26:52.674Z,2.29
2023-03-05T04:27:52.666Z,2.28
2023-03-05T04:28:52.662Z,2.29
2023-03-05T04:29:52.628Z,2.29
2023-03-05T04:30:52.660Z,2.28
2023-03-05T04:31:52.604Z,2.28
2023-03-05T04:32:52.597Z,2.28
2023-03-05T04:33:52.595Z,2.28
2023-03-05T04:34:52.565Z,2.25
2023-03-05T04:35:52.595Z,2.28
2023-03-05T04:36:52.540Z,2.28
2023-03-05T04:37:52.522Z,2.28
2023-03-05T04:38:52.520Z,2.29
2023-03-05T04:39:52.501Z,2.28
2023-03-05T04:40:52.487Z,2.28
2023-03-05T04:41:52.475Z,2.28
2023-03-05T04:42:52.457Z,2.28
2023-03-05T04:43:52.457Z,2.28
2023-03-05T04:44:52.449Z,2.26
2023-03-05T04:45:52.418Z,2.29
2023-03-05T04:46:52.442Z,2.26
2023-03-05T04:47:52.394Z,2.28
2023-03-05T04:48:52.395Z,2.26
2023-03-05T04:49:52.376Z,2.25
2023-03-05T04:50:52.345Z,2.28
2023-03-05T04:51:52.404Z,2.26
2023-03-05T04:52:52.329Z,2.26
2023-03-05T04:53:52.326Z,2.25
2023-03-05T04:54:52.304Z,2.28
2023-03-05T04:55:52.293Z,2.26
2023-03-05T04:56:52.271Z,2.26
2023-03-05T04:57:52.264Z,2.26
2023-03-05T04:58:52.262Z,2.25
2023-03-05T04:59:52.238Z,2.28
2023-03-05T05:00:52.223Z,2.26
2023-03-05T05:01:52.249Z,2.26
2023-03-05T05:02:52.278Z,2.26
2023-03-05T05:03:52.200Z,2.26
2023-03-05T05:04:52.173Z,2.26
2023-03-05T05:05:52.151Z,2.28
2023-03-05T05:06:52.143Z,2.28
2023-03-05T05:07:52.124Z,2.26
2023-03-05T05:08:52.133Z,2.26
2023-03-05T05:09:52.105Z,2.26
2023-03-05T05:10:52.093Z,2.26
2023-03-05T05:11:52.073Z,2.26
2023-03-05T05:12:52.061Z,2.25
2023-03-05T05:13:52.092Z,2.26
2023-03-05T05:14:52.041Z,2.25
2023-03-05T05:15:52.082Z,2.25
2023-03-05T05:16:52.011Z,2.25
2023-03-05T05:17:52.002Z,2.25
2023-03-05T05:18:52.003Z,2.25
2023-03-05T05:19:51.977Z,2.25
2023-03-05T05:20:51.964Z,2.26
2023-03-05T05:21:51.940Z,2.25
2023-03-05T05:22:51.939Z,2.25
2023-03-05T05:23:51.933Z,2.22
2023-03-05T05:24:51.910Z,2.24
2023-03-05T05:25:51.891Z,2.24
2023-03-05T05:26:51.888Z,2.24
2023-03-05T05:27:51.870Z,2.24
2023-03-05T05:28:51.936Z,2.24
2023-03-05T05:29:51.848Z,2.25
2023-03-05T05:30:51.838Z,2.24
2023-03-05T05:31:51.853Z,2.24
2023-03-05T05:32:51.816Z,2.24
2023-03-05T05:33:51.833Z,2.22
2023-03-05T05:34:51.797Z,2.22
2023-03-05T05:35:51.830Z,2.24
2023-03-05T05:36:51.788Z,2.24
2023-03-05T05:37:51.772Z,2.24
2023-03-05T05:38:51.769Z,2.22
2023-03-05T05:39:51.729Z,2.22
2023-03-05T05:40:51.752Z,2.20
2023-03-05T05:41:51.707Z,2.22
2023-03-05T05:42:51.728Z,2.22
2023-03-05T05:43:51.700Z,2.20
2023-03-05T05:44:51.708Z,2.20
2023-03-05T05:45:51.845Z,2.20
2023-03-05T05:46:51.640Z,2.20
2023-03-05T05:47:51.630Z,2.20
2023-03-05T05:48:51.637Z,2.20
2023-03-05T05:49:51.611Z,2.22
2023-03-05T05:50:51.612Z,2.18
2023-03-05T05:51:51.590Z,2.18
2023-03-05T05:52:51.591Z,2.20
2023-03-05T05:53:51.619Z,2.20
2023-03-05T05:54:51.542Z,2.20
2023-03-05T05:55:51.544Z,2.20
2023-03-05T05:56:51.528Z,2.18
2023-03-05T05:57:51.491Z,2.22
2023-03-05T05:58:51.519Z,2.20
2023-03-05T05:59:51.471Z,2.22
2023-03-05T06:00:51.468Z,2.20
2023-03-05T06:01:51.532Z,2.20
2023-03-05T06:02:51.499Z,2.20
2023-03-05T06:03:51.426Z,2.20
2023-03-05T06:04:51.404Z,2.20
2023-03-05T06:05:51.398Z,2.20
2023-03-05T06:06:51.399Z,2.22
2023-03-05T06:07:51.389Z,2.20
2023-03-05T06:08:51.379Z,2.22
2023-03-05T06:09:51.338Z,2.20
2023-03-05T06:10:51.325Z,2.22
2023-03-05T06:11:51.311Z,2.20
2023-03-05T06:12:51.297Z,2.22
2023-03-05T06:13:51.305Z,2.22
2023-03-05T06:14:51.281Z,2.22
2023-03-05T06:15:51.272Z,2.22
2023-03-05T06:16:51.297Z,2.22
2023-03-05T06:17:51.233Z,2.18
2023-03-05T06:18:51.243Z,2.22
2023-03-05T06:19:51.202Z,2.24
2023-03-05T06:20:51.194Z,2.20
2023-03-05T06:21:51.202Z,2.22
2023-03-05T06:22:51.163Z,2.22
2023-03-05T06:23:51.175Z,2.25
2023-03-05T06:24:51.148Z,2.24
2023-03-05T06:25:51.131Z,2.24
2023-03-05T06:26:51.114Z,2.24
2023-03-05T06:27:51.092Z,2.24
2023-03-05T06:28:51.102Z,2.25
2023-03-05T06:29:51.079Z,2.25
2023-03-05T06:30:51.089Z,2.26
2023-03-05T06:31:51.056Z,2.25
2023-03-05T06:32:51.039Z,2.25
2023-03-05T06:33:51.050Z,2.25
2023-03-05T06:34:51.020Z,2.26
2023-03-05T06:35:51.052Z,2.28
2023-03-05T06:36:51.024Z,2.28
2023-03-05T06:37:50.985Z,2.28
2023-03-05T06:38:53.117Z,2.28
2023-03-05T06:39:50.957Z,2.29
2023-03-05T06:40:50.959Z,2.29
2023-03-05T06:41:50.944Z,2.31
2023-03-05T06:42:50.927Z,2.32
2023-03-05T06:43:50.918Z,2.31
2023-03-05T06:44:50.955Z,2.32
2023-03-05T06:45:50.917Z,2.35
2023-03-05T06:46:50.865Z,2.35
2023-03-05T06:48:05.556Z,2.36
2023-03-05T06:48:50.902Z,2.38
2023-03-05T06:49:50.844Z,2.38
2023-03-05T06:50:50.847Z,2.38
2023-03-05T06:51:50.797Z,2.42
2023-03-05T06:52:50.790Z,2.42
2023-03-05T06:53:50.810Z,2.43
2023-03-05T06:54:50.774Z,2.43
2023-03-05T06:55:50.754Z,2.44
2023-03-05T06:56:50.734Z,2.46
2023-03-05T06:57:50.714Z,2.44
2023-03-05T06:58:50.747Z,2.47
2023-03-05T06:59:50.674Z,2.49
2023-03-05T07:00:50.709Z,2.49
2023-03-05T07:01:50.692Z,2.49
2023-03-05T07:02:50.714Z,2.50
2023-03-05T07:03:50.693Z,2.53
2023-03-05T07:04:50.644Z,2.51
2023-03-05T07:05:50.621Z,2.51
2023-03-05T07:06:50.618Z,2.54
2023-03-05T07:07:50.580Z,2.53
2023-03-05T07:08:50.649Z,2.54
2023-03-05T07:09:50.600Z,2.56
2023-03-05T07:10:50.551Z,2.60
2023-03-05T07:11:50.533Z,2.60
2023-03-05T07:12:50.531Z,2.61
2023-03-05T07:13:50.510Z,2.62
2023-03-05T07:14:50.540Z,2.64
2023-03-05T07:15:50.491Z,2.62
2023-03-05T07:16:50.497Z,2.64
2023-03-05T07:17:50.477Z,2.65
2023-03-05T07:18:50.442Z,2.67
2023-03-05T07:19:50.469Z,2.69
2023-03-05T07:20:50.448Z,2.71
2023-03-05T07:21:50.440Z,2.71
2023-03-05T07:22:50.461Z,2.69
2023-03-05T07:23:50.426Z,2.71
2023-03-05T07:24:50.378Z,2.74
2023-03-05T07:25:50.348Z,2.74
2023-03-05T07:26:50.367Z,2.75
2023-03-05T07:27:50.324Z,2.77
2023-03-05T07:28:50.321Z,2.80
2023-03-05T07:29:50.316Z,2.83
2023-03-05T07:30:50.328Z,2.83
2023-03-05T07:31:50.268Z,2.83
2023-03-05T07:32:50.266Z,2.83
2023-03-05T07:33:50.272Z,2.83
2023-03-05T07:34:50.269Z,2.83
2023-03-05T07:35:50.265Z,2.83
2023-03-05T07:36:50.206Z,2.85
2023-03-05T07:37:50.206Z,2.86
2023-03-05T07:38:50.192Z,2.87
2023-03-05T07:39:50.228Z,2.89
2023-03-05T07:40:50.176Z,2.89
2023-03-05T07:41:50.166Z,2.93
2023-03-05T07:42:50.150Z,2.93
2023-03-05T07:43:50.115Z,2.97
2023-03-05T07:44:50.158Z,2.98
2023-03-05T07:45:50.129Z,3.01
2023-03-05T07:46:50.271Z,3.07
2023-03-05T07:47:52.438Z,3.08
2023-03-05T07:48:50.085Z,3.11
2023-03-05T07:49:50.042Z,3.16
2023-03-05T07:50:50.033Z,3.21
2023-03-05T07:51:50.017Z,3.25
2023-03-05T07:52:50.030Z,3.26
2023-03-05T07:53:49.983Z,3.31
2023-03-05T07:54:49.993Z,3.34
2023-03-05T07:55:49.953Z,3.40
2023-03-05T07:56:49.953Z,3.44
2023-03-05T07:57:49.946Z,3.48
2023-03-05T07:58:50.062Z,3.51
2023-03-05T07:59:49.933Z,3.56
2023-03-05T08:00:49.912Z,3.62
2023-03-05T08:01:49.875Z,3.66
2023-03-05T08:02:49.951Z,3.73
2023-03-05T08:03:49.887Z,3.77
2023-03-05T08:04:49.872Z,3.80
2023-03-05T08:05:49.842Z,3.84
2023-03-05T08:06:49.904Z,3.88
2023-03-05T08:07:49.818Z,3.88
2023-03-05T08:08:49.803Z,3.94
2023-03-05T08:09:49.824Z,3.96
2023-03-05T08:10:49.860Z,4.01
2023-03-05T08:11:49.761Z,4.05
2023-03-05T08:12:49.773Z,4.10
2023-03-05T08:13:49.739Z,4.13
2023-03-05T08:14:49.743Z,4.16
2023-03-05T08:15:49.746Z,4.16
2023-03-05T08:16:49.704Z,4.20
2023-03-05T08:17:49.697Z,4.23
2023-03-05T08:18:49.728Z,4.24
2023-03-05T08:19:49.668Z,4.26
2023-03-05T08:20:49.679Z,4.31
2023-03-05T08:21:49.618Z,4.32
2023-03-05T08:22:49.617Z,4.34
2023-03-05T08:23:49.647Z,4.35
2023-03-05T08:24:49.647Z,4.35
2023-03-05T08:25:49.576Z,4.37
2023-03-05T08:26:49.569Z,4.37
2023-03-05T08:27:49.537Z,4.35
2023-03-05T08:28:49.609Z,4.38
2023-03-05T08:29:49.541Z,4.37
2023-03-05T08:30:49.515Z,4.35
2023-03-05T08:31:49.483Z,4.35
2023-03-05T08:32:49.488Z,4.34
2023-03-05T08:33:49.480Z,4.32
2023-03-05T08:34:49.486Z,4.31
2023-03-05T08:35:49.489Z,4.31
2023-03-05T08:36:49.484Z,4.30
2023-03-05T08:37:49.425Z,4.28
2023-03-05T08:38:49.403Z,4.30
2023-03-05T08:39:49.401Z,4.30
2023-03-05T08:40:49.374Z,4.31
2023-03-05T08:41:49.384Z,4.35
2023-03-05T08:42:49.383Z,4.38
2023-03-05T08:43:49.345Z,4.37
2023-03-05T08:44:49.353Z,4.40
2023-03-05T08:45:49.312Z,4.38
2023-03-05T08:46:49.370Z,4.44
2023-03-05T08:47:49.305Z,4.48
2023-03-05T08:48:49.296Z,4.50
2023-03-05T08:49:49.284Z,4.53
2023-03-05T08:50:49.253Z,4.56
2023-03-05T08:51:49.234Z,4.58
2023-03-05T08:52:49.233Z,4.59
2023-03-05T08:53:49.232Z,4.59
2023-03-05T08:54:49.251Z,4.60
2023-03-05T08:55:49.202Z,4.62
2023-03-05T08:56:49.200Z,4.63
2023-03-05T08:57:49.191Z,4.66
2023-03-05T08:58:49.147Z,4.67
2023-03-05T08:59:49.144Z,4.68
2023-03-05T09:00:49.132Z,4.71
2023-03-05T09:01:49.125Z,4.74
2023-03-05T09:02:49.158Z,4.78
2023-03-05T09:03:49.107Z,4.87
2023-03-05T09:04:49.081Z,4.90
2023-03-05T09:05:49.059Z,4.93
2023-03-05T09:06:49.054Z,4.97
2023-03-05T09:07:49.093Z,5.00
2023-03-05T09:08:49.022Z,5.07
2023-03-05T09:09:49.019Z,5.14
2023-03-05T09:10:49.002Z,5.25
2023-03-05T09:11:48.984Z,5.39
2023-03-05T09:12:48.969Z,5.46
2023-03-05T09:13:48.965Z,5.53
2023-03-05T09:14:48.978Z,5.57
2023-03-05T09:15:48.927Z,5.62
2023-03-05T09:16:48.916Z,5.66
2023-03-05T09:17:48.919Z,5.69
2023-03-05T09:18:48.884Z,5.73
2023-03-05T09:19:48.917Z,5.79
2023-03-05T09:20:48.866Z,5.82
2023-03-05T09:21:48.848Z,5.87
2023-03-05T09:22:48.836Z,5.91
2023-03-05T09:23:48.833Z,5.97
2023-03-05T09:24:48.824Z,6.04
2023-03-05T09:25:48.805Z,6.11
2023-03-05T09:26:48.806Z,6.12
2023-03-05T09:27:48.815Z,6.14
2023-03-05T09:28:48.753Z,6.16
2023-03-05T09:29:48.774Z,6.17
2023-03-05T09:30:48.738Z,6.20
2023-03-05T09:31:48.786Z,6.20
2023-03-05T09:32:48.803Z,6.24
2023-03-05T09:33:48.715Z,6.22
2023-03-05T09:34:48.682Z,6.20
2023-03-05T09:35:48.806Z,6.20
2023-03-05T09:36:48.653Z,6.20
2023-03-05T09:37:48.663Z,6.20
2023-03-05T09:38:48.666Z,6.20
2023-03-05T09:39:48.630Z,6.22
2023-03-05T09:40:48.618Z,6.22
2023-03-05T09:41:48.636Z,6.27
2023-03-05T09:42:48.687Z,6.33
2023-03-05T09:43:48.621Z,6.45
2023-03-05T09:44:48.613Z,6.60
2023-03-05T09:45:48.654Z,6.70
2023-03-05T09:46:48.539Z,6.81
2023-03-05T09:47:48.509Z,6.89
2023-03-05T09:48:48.510Z,6.99
2023-03-05T09:49:48.513Z,7.10
2023-03-05T09:50:48.479Z,7.18
2023-03-05T09:51:48.472Z,7.32
2023-03-05T09:52:48.459Z,7.45
2023-03-05T09:53:48.440Z,7.58
2023-03-05T09:54:48.428Z,7.72
2023-03-05T09:55:48.421Z,7.77
2023-03-05T09:56:48.392Z,7.82
2023-03-05T09:57:48.390Z,7.79
2023-03-05T09:58:48.364Z,7.76
2023-03-05T09:59:48.360Z,7.70
2023-03-05T10:00:48.402Z,7.69
2023-03-05T10:01:48.359Z,7.69
2023-03-05T10:02:48.360Z,7.70
2023-03-05T10:03:48.322Z,7.72
2023-03-05T10:04:48.291Z,7.72
2023-03-05T10:05:48.319Z,7.73
2023-03-05T10:06:48.299Z,7.75
2023-03-05T10:07:48.250Z,7.75
2023-03-05T10:08:48.237Z,7.76
2023-03-05T10:09:48.218Z,7.76
2023-03-05T10:10:48.223Z,7.75
2023-03-05T10:11:48.190Z,7.67
2023-03-05T10:12:48.173Z,7.63
2023-03-05T10:13:48.179Z,7.56
2023-03-05T10:14:48.227Z,7.54
2023-03-05T10:15:48.209Z,7.50
2023-03-05T10:16:48.152Z,7.48
2023-03-05T10:17:48.126Z,7.47
2023-03-05T10:18:48.088Z,7.43
2023-03-05T10:19:48.089Z,7.40
2023-03-05T10:20:48.086Z,7.40
2023-03-05T10:21:48.065Z,7.38
2023-03-05T10:22:48.045Z,7.35
2023-03-05T10:23:48.044Z,7.32
2023-03-05T10:24:48.037Z,7.29
2023-03-05T10:25:48.038Z,7.25
2023-03-05T10:26:47.994Z,7.21
2023-03-05T10:27:47.986Z,7.18
2023-03-05T10:28:47.986Z,7.15
2023-03-05T10:29:47.962Z,7.13
2023-03-05T10:30:47.965Z,7.10
2023-03-05T10:31:47.961Z,7.07
2023-03-05T10:32:47.966Z,7.03
2023-03-05T10:33:47.915Z,7.02
2023-03-05T10:34:47.914Z,6.99
2023-03-05T10:35:48.054Z,6.96
2023-03-05T10:36:47.861Z,6.95
2023-03-05T10:37:47.874Z,6.89
2023-03-05T10:38:47.846Z,6.88
2023-03-05T10:39:47.843Z,6.84
2023-03-05T10:40:47.836Z,6.81
2023-03-05T10:41:47.803Z,6.77
2023-03-05T10:42:47.793Z,6.74
2023-03-05T10:43:47.782Z,6.72
2023-03-05T10:44:47.770Z,6.70
2023-03-05T10:45:47.855Z,6.67
2023-03-05T10:46:47.742Z,6.64
2023-03-05T10:47:47.730Z,6.60
2023-03-05T10:48:47.721Z,6.59
2023-03-05T10:49:47.712Z,6.52
2023-03-05T10:50:47.726Z,6.52
2023-03-05T10:51:47.747Z,6.49
2023-03-05T10:52:47.661Z,6.46
2023-03-05T10:53:47.653Z,6.45
2023-03-05T10:54:47.640Z,6.44
2023-03-05T10:55:47.631Z,6.41
2023-03-05T10:56:47.614Z,6.39
2023-03-05T10:57:47.590Z,6.38
2023-03-05T10:58:47.582Z,6.36
2023-03-05T10:59:47.582Z,6.35
2023-03-05T11:00:47.577Z,6.38
2023-03-05T11:01:47.637Z,6.41
2023-03-05T11:02:47.575Z,6.44
2023-03-05T11:03:47.510Z,6.48
2023-03-05T11:04:47.498Z,6.51
2023-03-05T11:05:47.519Z,6.54
2023-03-05T11:06:47.508Z,6.56
2023-03-05T11:07:47.470Z,6.59
2023-03-05T11:08:47.445Z,6.59
2023-03-05T11:09:47.436Z,6.62
2023-03-05T11:10:47.437Z,6.62
2023-03-05T11:11:47.415Z,6.62
2023-03-05T11:12:47.409Z,6.62
2023-03-05T11:13:47.384Z,6.60
2023-03-05T11:14:47.391Z,6.59
2023-03-05T11:15:47.408Z,6.57
2023-03-05T11:16:47.611Z,6.54
2023-03-05T11:17:47.330Z,6.51
2023-03-05T11:18:47.312Z,6.49
2023-03-05T11:19:47.309Z,6.49
2023-03-05T11:20:47.310Z,6.48
2023-03-05T11:21:47.294Z,6.48
2023-03-05T11:22:47.260Z,6.48
2023-03-05T11:23:47.260Z,6.49
2023-03-05T11:24:47.259Z,6.52
2023-03-05T11:25:47.248Z,6.56
2023-03-05T11:26:47.211Z,6.60
2023-03-05T11:27:49.558Z,6.64
2023-03-05T11:28:47.188Z,6.72
2023-03-05T11:29:47.169Z,6.79
2023-03-05T11:30:47.197Z,6.85
2023-03-05T11:31:47.156Z,6.89
2023-03-05T11:32:47.127Z,6.96
2023-03-05T11:33:47.126Z,7.00
2023-03-05T11:34:47.107Z,7.05
2023-03-05T11:35:47.146Z,7.10
2023-03-05T11:36:47.094Z,7.14
2023-03-05T11:37:47.078Z,7.21
2023-03-05T11:38:47.059Z,7.28
2023-03-05T11:39:47.051Z,7.33
2023-03-05T11:40:47.047Z,7.42
2023-03-05T11:41:47.029Z,7.50
2023-03-05T11:42:47.006Z,7.58
2023-03-05T11:43:47.008Z,7.63
2023-03-05T11:44:46.979Z,7.69
2023-03-05T11:45:46.987Z,7.73
2023-03-05T11:46:46.955Z,7.76
2023-03-05T11:47:46.957Z,7.79
2023-03-05T11:48:46.928Z,7.79
2023-03-05T11:49:46.938Z,7.80
2023-03-05T11:50:46.920Z,7.80
2023-03-05T11:51:46.886Z,7.80
2023-03-05T11:52:46.877Z,7.82
2023-03-05T11:53:46.874Z,7.82
2023-03-05T11:54:46.847Z,7.83
2023-03-05T11:55:46.860Z,7.85
2023-03-05T11:56:46.826Z,7.88
2023-03-05T11:57:46.817Z,7.90
2023-03-05T11:58:46.814Z,7.94
2023-03-05T11:59:46.798Z,7.94
2023-03-05T12:00:46.816Z,7.98
2023-03-05T12:01:46.769Z,8.00
2023-03-05T12:02:46.809Z,8.06
2023-03-05T12:03:46.792Z,8.10
2023-03-05T12:04:46.718Z,8.15
2023-03-05T12:05:46.719Z,8.20
2023-03-05T12:06:46.699Z,8.28
2023-03-05T12:07:46.681Z,8.33
2023-03-05T12:08:46.671Z,8.38
2023-03-05T12:09:46.667Z,8.42
2023-03-05T12:10:46.730Z,8.44
2023-03-05T12:11:46.631Z,8.44
2023-03-05T12:12:46.614Z,8.44
2023-03-05T12:13:46.654Z,8.42
2023-03-05T12:14:46.588Z,8.42
2023-03-05T12:15:46.674Z,8.41
2023-03-05T12:16:46.570Z,8.37
2023-03-05T12:17:46.551Z,8.34
2023-03-05T12:18:46.530Z,8.30
2023-03-05T12:19:47.006Z,8.27
2023-03-05T12:20:46.701Z,8.23
2023-03-05T12:21:46.856Z,8.15
2023-03-05T12:22:46.499Z,8.15
2023-03-05T12:23:46.505Z,8.12
2023-03-05T12:24:46.477Z,8.09
2023-03-05T12:25:46.471Z,8.08
2023-03-05T12:26:46.428Z,8.06
2023-03-05T12:27:46.436Z,8.01
2023-03-05T12:28:46.438Z,8.00
2023-03-05T12:29:46.415Z,7.98
2023-03-05T12:30:46.410Z,7.98
2023-03-05T12:31:46.446Z,7.98
2023-03-05T12:32:46.576Z,8.00
2023-03-05T12:33:46.376Z,8.00
2023-03-05T12:34:46.351Z,8.01
2023-03-05T12:35:48.587Z,8.01
2023-03-05T12:36:46.496Z,8.03
2023-03-05T12:37:46.298Z,8.01
2023-03-05T12:38:46.422Z,8.01
2023-03-05T12:39:46.272Z,8.01
2023-03-05T12:40:46.288Z,8.00
2023-03-05T12:41:46.246Z,8.01
2023-03-05T12:42:46.248Z,8.00
2023-03-05T12:43:46.218Z,7.97
2023-03-05T12:44:46.197Z,7.95
2023-03-05T12:45:46.205Z,7.93
2023-03-05T12:46:46.230Z,7.90
2023-03-05T12:47:46.180Z,7.88
2023-03-05T12:48:46.215Z,7.87
2023-03-05T12:49:46.155Z,7.85
2023-03-05T12:50:46.139Z,7.91
2023-03-05T12:51:46.104Z,8.01
2023-03-05T12:52:46.086Z,8.15
2023-03-05T12:53:46.082Z,8.26
2023-03-05T12:54:46.067Z,8.34
2023-03-05T12:55:46.089Z,8.48
2023-03-05T12:56:46.063Z,8.60
2023-03-05T12:57:46.026Z,8.71
2023-03-05T12:58:46.023Z,8.79
2023-03-05T12:59:46.006Z,8.85
2023-03-05T13:00:46.002Z,8.89
2023-03-05T13:01:45.989Z,8.95
2023-03-05T13:02:45.978Z,9.02
2023-03-05T13:03:45.951Z,9.10
2023-03-05T13:04:45.939Z,9.16
2023-03-05T13:05:45.920Z,9.22
2023-03-05T13:06:45.915Z,9.28
2023-03-05T13:07:45.889Z,9.36
2023-03-05T13:08:45.873Z,9.46
2023-03-05T13:09:45.867Z,9.58
2023-03-05T13:10:45.859Z,9.69
2023-03-05T13:11:45.893Z,9.74
2023-03-05T13:12:45.829Z,9.80
2023-03-05T13:13:45.815Z,9.83
2023-03-05T13:14:45.784Z,9.84
2023-03-05T13:15:45.795Z,9.83
2023-03-05T13:16:45.844Z,9.80
2023-03-05T13:17:45.754Z,9.77
2023-03-05T13:18:45.759Z,9.73